WXM80 ListenWXM80 Stop

You find our weather info also at:

UK Metoffice

WeatherCloud

Weather Underground

Northeastern Weather Network

AWEKAS

Citizen Weather Observer Program (CWOP)

HAMweather, WeatherForYou, PWS Weather


Weather Underground History page Text

Daily Summary for May 7, 2017 Units:  English    Metric   Both
« Previous Day
Next Day »
Daily Weekly Monthly Yearly Custom
  High: Low: Average:
Temperature: 64.8 °F 47.9 °F 53.9 °F
Dew Point: 50.2 °F 39.7 °F 45 °F
Humidity: 87 % 49 % 73 %
Wind Speed: 8.6 mph 0.0 mph 3.5 mph
Wind Gust: 17.0 mph - -
Wind:- - WSW
Pressure: 29.74 in 29.44 in -
Precipitation: 0.01 in    
Historical Graphs
 
 
Tabular Data for May 7, 2017
Time Temperature Dew Point Pressure Wind Wind Speed Wind Gust Humidity Rainfall Rate (Hourly)
00:01 55.3 °F 50.2 °F 29.44 in WSW 2.2 mph 4.6 mph 83 % 0.00 in
00:06 55.3 °F 49.9 °F 29.44 in SW 0.8 mph 4.6 mph 82 % 0.00 in
00:11 55.3 °F 49.9 °F 29.44 in SW 2.8 mph 3.5 mph 82 % 0.00 in
00:16 55.2 °F 49.8 °F 29.45 in WSW 2.4 mph 3.5 mph 82 % 0.00 in
00:21 55.2 °F 50.1 °F 29.45 in WSW 0.1 mph 1.2 mph 83 % 0.00 in
00:27 55.2 °F 50.1 °F 29.45 in WSW 0.5 mph 2.3 mph 83 % 0.00 in
00:32 55.2 °F 50.1 °F 29.45 in SW 0.8 mph 3.5 mph 83 % 0.00 in
00:37 55.1 °F 49.7 °F 29.45 in South 1.5 mph 3.5 mph 82 % 0.00 in
00:42 55.1 °F 49.4 °F 29.45 in SW 2.7 mph 6.9 mph 81 % 0.00 in
00:47 55.1 °F 49.4 °F 29.46 in WSW 3.1 mph 4.6 mph 81 % 0.00 in
00:52 55.0 °F 48.9 °F 29.46 in SW 6.0 mph 10.4 mph 80 % 0.00 in
00:57 55.1 °F 49.0 °F 29.46 in West 5.4 mph 6.9 mph 80 % 0.00 in
01:02 55.0 °F 48.9 °F 29.46 in SSW 6.3 mph 8.0 mph 80 % 0.00 in
01:07 55.0 °F 48.9 °F 29.46 in SW 5.3 mph 10.0 mph 80 % 0.00 in
01:12 54.9 °F 48.5 °F 29.46 in SSW 2.5 mph 6.0 mph 79 % 0.00 in
01:17 54.8 °F 48.4 °F 29.46 in SW 5.1 mph 7.0 mph 79 % 0.00 in
01:22 54.8 °F 48.4 °F 29.47 in SSW 1.6 mph 5.0 mph 79 % 0.00 in
01:27 54.6 °F 48.2 °F 29.47 in SW 6.2 mph 12.7 mph 79 % 0.00 in
01:32 54.6 °F 48.2 °F 29.47 in WSW 3.9 mph 7.0 mph 79 % 0.00 in
01:38 54.5 °F 48.1 °F 29.47 in SSW 5.5 mph 8.1 mph 79 % 0.00 in
01:43 54.3 °F 47.9 °F 29.47 in SW 2.4 mph 6.9 mph 79 % 0.00 in
01:48 54.1 °F 47.7 °F 29.47 in SSW 4.9 mph 9.2 mph 79 % 0.00 in
01:53 53.9 °F 47.5 °F 29.47 in SW 1.2 mph 3.5 mph 79 % 0.00 in
01:58 53.7 °F 47.7 °F 29.48 in SSW 3.1 mph 6.9 mph 80 % 0.00 in
02:03 53.5 °F 47.5 °F 29.47 in SSW 3.6 mph 8.1 mph 80 % 0.00 in
02:08 53.3 °F 47.3 °F 29.48 in West 3.3 mph 6.9 mph 80 % 0.00 in
02:13 53.1 °F 47.4 °F 29.47 in SSW 2.6 mph 5.8 mph 81 % 0.00 in
02:18 53.0 °F 47.3 °F 29.47 in SSW 2.6 mph 8.1 mph 81 % 0.00 in
02:23 52.8 °F 47.1 °F 29.47 in SSW 3.5 mph 7.0 mph 81 % 0.00 in
02:28 52.7 °F 47.4 °F 29.47 in WSW 1.3 mph 4.0 mph 82 % 0.00 in
02:33 52.6 °F 47.3 °F 29.48 in SSW 1.9 mph 2.3 mph 82 % 0.00 in
02:38 52.4 °F 47.1 °F 29.49 in SW 2.9 mph 5.8 mph 82 % 0.00 in
02:43 52.3 °F 47.3 °F 29.48 in SSW 2.9 mph 4.6 mph 83 % 0.00 in
02:48 52.2 °F 47.2 °F 29.49 in SW 3.2 mph 5.0 mph 83 % 0.00 in
02:53 52.1 °F 47.1 °F 29.49 in WSW 1.5 mph 8.1 mph 83 % 0.00 in
02:58 52.1 °F 47.1 °F 29.49 in SSW 2.3 mph 5.8 mph 83 % 0.00 in
03:04 52.0 °F 47.3 °F 29.49 in South 1.9 mph 6.9 mph 84 % 0.00 in
03:09 52.0 °F 47.3 °F 29.49 in SW 3.0 mph 5.8 mph 84 % 0.00 in
03:14 51.9 °F 47.2 °F 29.49 in SW 0.3 mph 3.5 mph 84 % 0.00 in
03:19 52.0 °F 47.3 °F 29.50 in South 1.1 mph 3.5 mph 84 % 0.00 in
03:24 52.0 °F 47.3 °F 29.50 in SW 1.0 mph 3.5 mph 84 % 0.00 in
03:29 52.0 °F 47.3 °F 29.50 in WSW 3.3 mph 4.6 mph 84 % 0.00 in
03:34 51.9 °F 47.2 °F 29.50 in WSW 1.2 mph 3.5 mph 84 % 0.00 in
03:39 52.0 °F 47.3 °F 29.50 in WSW 1.3 mph 3.5 mph 84 % 0.00 in
03:44 52.0 °F 47.3 °F 29.50 in SSW 6.4 mph 9.2 mph 84 % 0.00 in
03:49 52.1 °F 47.1 °F 29.50 in SSW 6.1 mph 12.7 mph 83 % 0.00 in
03:54 52.3 °F 47.3 °F 29.50 in SSW 8.6 mph 11.5 mph 83 % 0.00 in
03:59 52.4 °F 47.4 °F 29.51 in SW 1.0 mph 9.2 mph 83 % 0.00 in
04:04 52.5 °F 47.5 °F 29.51 in SSW 3.7 mph 7.0 mph 83 % 0.00 in
04:09 52.5 °F 47.2 °F 29.51 in West 4.7 mph 8.1 mph 82 % 0.00 in
04:14 52.6 °F 47.3 °F 29.51 in SW 0.4 mph 4.0 mph 82 % 0.00 in
04:19 52.6 °F 47.3 °F 29.51 in SW 1.3 mph 6.0 mph 82 % 0.00 in
04:24 52.6 °F 47.3 °F 29.51 in SW 4.7 mph 6.0 mph 82 % 0.00 in
04:29 52.6 °F 47.3 °F 29.51 in SSW 6.8 mph 11.0 mph 82 % 0.00 in
04:34 52.6 °F 46.9 °F 29.51 in SW 3.7 mph 6.9 mph 81 % 0.00 in
04:39 52.6 °F 46.9 °F 29.51 in WSW 4.5 mph 7.0 mph 81 % 0.00 in
04:44 52.6 °F 46.9 °F 29.52 in WSW 0.4 mph 3.5 mph 81 % 0.00 in
04:49 52.6 °F 46.9 °F 29.52 in WSW 1.4 mph 8.1 mph 81 % 0.00 in
04:54 52.4 °F 46.7 °F 29.52 in WSW 2.8 mph 6.9 mph 81 % 0.00 in
04:59 52.4 °F 46.7 °F 29.52 in WSW 0.4 mph 3.5 mph 81 % 0.00 in
05:04 52.3 °F 47.0 °F 29.52 in SE 2.7 mph 4.6 mph 82 % 0.00 in
05:10 52.2 °F 46.9 °F 29.52 in SW 3.1 mph 4.6 mph 82 % 0.00 in
05:15 52.1 °F 46.8 °F 29.53 in SW 1.1 mph 3.5 mph 82 % 0.00 in
05:20 52.0 °F 46.7 °F 29.53 in Calm     82 % 0.00 in
05:25 51.9 °F 46.6 °F 29.53 in SW 0.2 mph   82 % 0.00 in
05:30 51.7 °F 46.4 °F 29.53 in SW 1.0 mph 2.3 mph 82 % 0.00 in
05:35 51.7 °F 46.7 °F 29.53 in SW 1.3 mph 2.3 mph 83 % 0.00 in
05:40 51.5 °F 46.5 °F 29.53 in Calm     83 % 0.00 in
05:45 51.4 °F 46.7 °F 29.53 in SW 0.1 mph 1.2 mph 84 % 0.00 in
05:50 51.2 °F 46.5 °F 29.53 in Calm   1.2 mph 84 % 0.00 in
05:55 51.1 °F 46.4 °F 29.54 in SW 0.7 mph 3.5 mph 84 % 0.00 in
06:00 51.0 °F 46.6 °F 29.53 in SW 0.7 mph 3.0 mph 85 % 0.00 in
06:05 50.9 °F 46.6 °F 29.54 in SW 0.3 mph 3.5 mph 85 % 0.00 in
06:10 50.8 °F 46.8 °F 29.54 in Calm   2.3 mph 86 % 0.00 in
06:15 50.7 °F 46.7 °F 29.54 in SW 0.2 mph 1.2 mph 86 % 0.00 in
06:20 50.6 °F 46.6 °F 29.55 in Calm     86 % 0.00 in
06:25 50.6 °F 46.9 °F 29.55 in SW 0.3 mph 1.2 mph 87 % 0.00 in
06:30 50.7 °F 47.0 °F 29.56 in SW 0.3 mph 1.2 mph 87 % 0.00 in
06:35 50.9 °F 47.2 °F 29.56 in SW 0.2 mph 1.0 mph 87 % 0.00 in
06:40 51.2 °F 47.5 °F 29.56 in Calm     87 % 0.00 in
06:45 51.6 °F 47.5 °F 29.57 in SSE 0.7 mph 3.5 mph 86 % 0.00 in
06:50 51.9 °F 47.8 °F 29.57 in SSE 0.2 mph 1.2 mph 86 % 0.00 in
06:55 52.3 °F 48.2 °F 29.57 in South 1.0 mph 3.5 mph 86 % 0.00 in
07:00 52.7 °F 48.3 °F 29.57 in Calm   1.2 mph 85 % 0.00 in
07:05 53.2 °F 48.2 °F 29.57 in SW 1.7 mph 3.5 mph 83 % 0.00 in
07:11 53.7 °F 48.0 °F 29.58 in SSW 3.0 mph 4.6 mph 81 % 0.00 in
07:16 54.1 °F 48.1 °F 29.58 in SW 2.0 mph 7.0 mph 80 % 0.00 in
07:21 54.5 °F 47.4 °F 29.58 in SW 3.0 mph 8.0 mph 77 % 0.00 in
07:26 54.8 °F 47.4 °F 29.58 in SW 2.0 mph 7.0 mph 76 % 0.00 in
07:31 55.0 °F 46.9 °F 29.58 in SW 3.0 mph 11.0 mph 74 % 0.00 in
07:36 55.0 °F 45.8 °F 29.58 in SW 5.0 mph 12.0 mph 71 % 0.00 in
07:41 55.0 °F 45.8 °F 29.59 in SSW 6.2 mph 10.4 mph 71 % 0.00 in
07:46 55.1 °F 45.9 °F 29.59 in SW 3.0 mph 7.0 mph 71 % 0.00 in
07:51 55.2 °F 46.4 °F 29.59 in SW 2.0 mph 5.0 mph 72 % 0.00 in
07:56 55.4 °F 45.8 °F 29.59 in SW 5.0 mph 9.0 mph 70 % 0.00 in
08:01 55.6 °F 45.6 °F 29.60 in SSW 5.4 mph 9.0 mph 69 % 0.00 in
08:06 55.7 °F 44.9 °F 29.60 in SW 7.0 mph 17.0 mph 67 % 0.00 in
08:11 55.7 °F 44.9 °F 29.59 in SW 7.0 mph 15.0 mph 67 % 0.00 in
08:16 55.9 °F 45.1 °F 29.59 in SW 3.0 mph 9.0 mph 67 % 0.00 in
08:21 56.0 °F 44.8 °F 29.59 in SSW 3.0 mph 13.0 mph 66 % 0.00 in
08:26 56.1 °F 44.9 °F 29.59 in SSW 3.0 mph 9.0 mph 66 % 0.00 in
08:31 56.1 °F 45.3 °F 29.59 in SW 5.0 mph 8.0 mph 67 % 0.00 in
08:36 56.1 °F 44.9 °F 29.60 in West 2.2 mph 10.4 mph 66 % 0.00 in
08:41 56.2 °F 45.0 °F 29.60 in West 6.3 mph 9.2 mph 66 % 0.00 in
08:46 56.3 °F 44.7 °F 29.60 in WSW 6.0 mph 14.0 mph 65 % 0.00 in
08:51 56.4 °F 44.8 °F 29.60 in SW 6.0 mph 15.0 mph 65 % 0.00 in
08:56 56.5 °F 44.9 °F 29.60 in SW 6.0 mph 12.0 mph 65 % 0.00 in
09:01 56.8 °F 45.6 °F 29.60 in WSW 6.2 mph 11.0 mph 66 % 0.00 in
09:06 57.0 °F 44.5 °F 29.60 in SSW 5.4 mph 11.5 mph 63 % 0.00 in
09:11 57.3 °F 44.4 °F 29.60 in SSW 7.0 mph 12.0 mph 62 % 0.00 in
09:16 57.5 °F 45.0 °F 29.60 in SW 3.0 mph 12.0 mph 63 % 0.00 in
09:21 57.6 °F 45.1 °F 29.60 in SSW 7.0 mph 13.0 mph 63 % 0.00 in
09:26 57.8 °F 44.5 °F 29.60 in SW 6.0 mph 9.0 mph 61 % 0.00 in
09:31 58.3 °F 44.9 °F 29.60 in SSW 5.0 mph 8.1 mph 61 % 0.00 in
09:36 58.7 °F 47.0 °F 29.60 in SSW 1.9 mph 5.8 mph 65 % 0.00 in
09:41 59.0 °F 45.6 °F 29.60 in SW 4.6 mph 9.0 mph 61 % 0.00 in
09:46 59.1 °F 45.7 °F 29.60 in SW 5.0 mph 9.0 mph 61 % 0.00 in
09:51 59.0 °F 45.1 °F 29.61 in SW 1.9 mph 3.5 mph 60 % 0.00 in
09:56 59.1 °F 45.7 °F 29.61 in SW 3.4 mph 6.0 mph 61 % 0.00 in
10:01 59.7 °F 46.7 °F 29.61 in WSW 3.2 mph 5.8 mph 62 % 0.00 in
10:06 60.7 °F 46.7 °F 29.60 in South 2.5 mph 3.5 mph 60 % 0.00 in
10:11 61.7 °F 47.2 °F 29.61 in West 1.5 mph 3.5 mph 59 % 0.00 in
10:16 62.4 °F 46.5 °F 29.60 in SE 4.3 mph 5.8 mph 56 % 0.00 in
10:21 63.0 °F 45.6 °F 29.61 in SSW 3.7 mph 7.0 mph 53 % 0.00 in
10:26 63.2 °F 46.3 °F 29.61 in SE 5.2 mph 10.4 mph 54 % 0.00 in
10:31 63.4 °F 46.5 °F 29.61 in SSW 4.0 mph 6.9 mph 54 % 0.00 in
10:36 64.1 °F 46.6 °F 29.61 in South 3.1 mph 4.6 mph 53 % 0.00 in
10:41 64.8 °F 48.7 °F 29.61 in ESE 1.7 mph 5.0 mph 56 % 0.00 in
10:46 64.7 °F 45.6 °F 29.61 in SW 7.0 mph 10.4 mph 50 % 0.00 in
10:51 64.1 °F 44.5 °F 29.61 in SE 2.3 mph 8.0 mph 49 % 0.00 in
10:56 63.2 °F 44.8 °F 29.61 in SSW 4.2 mph 6.0 mph 51 % 0.00 in
11:01 62.7 °F 46.3 °F 29.61 in SE 3.8 mph 8.0 mph 55 % 0.00 in
11:06 62.1 °F 44.3 °F 29.62 in SW 5.2 mph 8.0 mph 52 % 0.00 in
11:11 61.5 °F 44.2 °F 29.62 in SW 5.1 mph 10.4 mph 53 % 0.00 in
11:16 60.9 °F 43.6 °F 29.62 in SSW 7.3 mph 10.0 mph 53 % 0.00 in
11:22 60.4 °F 43.7 °F 29.62 in WSW 3.0 mph 13.0 mph 54 % 0.00 in
11:27 59.7 °F 43.5 °F 29.62 in SW 3.2 mph 11.5 mph 55 % 0.00 in
11:32 59.1 °F 42.9 °F 29.62 in SW 7.9 mph 11.5 mph 55 % 0.00 in
11:37 58.4 °F 42.8 °F 29.62 in West 3.6 mph 8.1 mph 56 % 0.00 in
11:42 58.0 °F 43.7 °F 29.62 in West 3.0 mph 8.1 mph 59 % 0.00 in
11:47 57.6 °F 43.4 °F 29.62 in SSW 3.7 mph 6.9 mph 59 % 0.00 in
11:48 57.5 °F 43.3 °F 29.62 in WSW 3.8 mph 6.9 mph 59 % 0.00 in
11:53 57.2 °F 43.0 °F 29.62 in WSW 2.4 mph 8.1 mph 59 % 0.00 in
11:58 57.4 °F 43.6 °F 29.62 in West 3.6 mph 5.8 mph 60 % 0.00 in
12:03 57.7 °F 43.5 °F 29.62 in NW 3.2 mph 5.8 mph 59 % 0.00 in
12:08 57.8 °F 43.6 °F 29.62 in SW 3.8 mph 6.9 mph 59 % 0.00 in
12:13 57.8 °F 43.6 °F 29.61 in WSW 5.2 mph 8.1 mph 59 % 0.00 in
12:18 57.7 °F 43.5 °F 29.62 in WNW 2.2 mph 3.5 mph 59 % 0.00 in
12:23 57.6 °F 43.8 °F 29.62 in West 0.7 mph 4.6 mph 60 % 0.00 in
12:28 57.5 °F 43.3 °F 29.61 in WSW 5.9 mph 8.1 mph 59 % 0.00 in
12:33 57.4 °F 43.2 °F 29.61 in SW 5.8 mph 9.2 mph 59 % 0.00 in
12:38 57.3 °F 43.5 °F 29.61 in WSW 0.9 mph 3.0 mph 60 % 0.00 in
12:43 57.3 °F 44.0 °F 29.62 in WSW 3.2 mph 7.0 mph 61 % 0.00 in
12:48 57.3 °F 44.4 °F 29.61 in SW 2.2 mph 5.8 mph 62 % 0.00 in
12:53 57.2 °F 44.3 °F 29.61 in WSW 1.9 mph 6.9 mph 62 % 0.00 in
12:58 57.2 °F 44.3 °F 29.61 in SSW 2.1 mph 5.8 mph 62 % 0.00 in
13:03 57.2 °F 45.1 °F 29.60 in SSW 2.3 mph 4.6 mph 64 % 0.00 in
13:08 57.3 °F 44.8 °F 29.60 in SW 3.4 mph 6.9 mph 63 % 0.00 in
13:13 57.4 °F 44.9 °F 29.61 in SW 2.8 mph 5.8 mph 63 % 0.00 in
13:18 57.4 °F 44.9 °F 29.61 in SSW 2.4 mph 4.6 mph 63 % 0.00 in
13:23 57.2 °F 44.7 °F 29.61 in South 1.7 mph 5.8 mph 63 % 0.00 in
13:28 57.0 °F 44.9 °F 29.61 in SSW 1.6 mph 4.0 mph 64 % 0.00 in
13:33 56.9 °F 44.8 °F 29.60 in SSW 2.8 mph 8.0 mph 64 % 0.00 in
13:39 56.8 °F 44.7 °F 29.61 in SW 1.2 mph 3.5 mph 64 % 0.00 in
13:44 56.7 °F 44.2 °F 29.61 in SW 2.3 mph 5.8 mph 63 % 0.00 in
13:49 56.6 °F 44.6 °F 29.61 in SSW 3.8 mph 6.9 mph 64 % 0.00 in
13:54 56.5 °F 44.0 °F 29.61 in South 1.6 mph 3.5 mph 63 % 0.00 in
13:59 56.4 °F 43.5 °F 29.61 in SW 4.9 mph 12.0 mph 62 % 0.00 in
14:04 56.3 °F 43.4 °F 29.61 in SSW 1.3 mph 3.5 mph 62 % 0.00 in
14:09 56.2 °F 43.3 °F 29.61 in SSW 5.0 mph 9.2 mph 62 % 0.00 in
14:14 56.3 °F 43.9 °F 29.61 in SSW 4.2 mph 5.8 mph 63 % 0.00 in
14:19 56.5 °F 44.0 °F 29.61 in WSW 1.3 mph 5.0 mph 63 % 0.00 in
14:24 57.0 °F 44.9 °F 29.61 in SW 0.9 mph 4.6 mph 64 % 0.00 in
14:29 57.5 °F 45.0 °F 29.61 in SSE 2.4 mph 5.8 mph 63 % 0.00 in
14:34 58.0 °F 44.2 °F 29.61 in SSW 3.1 mph 5.0 mph 60 % 0.00 in
14:35 58.1 °F 44.3 °F 29.60 in WSW 3.4 mph 4.6 mph 60 % 0.00 in
14:41 58.5 °F 44.2 °F 29.60 in SW 2.6 mph 8.1 mph 59 % 0.00 in
14:46 58.7 °F 44.4 °F 29.60 in SSW 4.6 mph 8.1 mph 59 % 0.00 in
14:51 58.8 °F 43.6 °F 29.60 in SW 4.6 mph 6.9 mph 57 % 0.00 in
14:56 58.7 °F 43.0 °F 29.60 in WSW 4.3 mph 6.0 mph 56 % 0.00 in
15:01 58.6 °F 43.4 °F 29.60 in WSW 4.4 mph 8.1 mph 57 % 0.00 in
15:06 58.4 °F 43.2 °F 29.60 in SW 3.1 mph 8.0 mph 57 % 0.00 in
15:11 58.2 °F 43.5 °F 29.60 in WSW 5.4 mph 10.4 mph 58 % 0.00 in
15:16 57.8 °F 42.7 °F 29.60 in SSW 7.1 mph 11.5 mph 57 % 0.00 in
15:21 57.5 °F 43.3 °F 29.60 in WSW 2.5 mph 9.2 mph 59 % 0.00 in
15:26 57.2 °F 43.0 °F 29.60 in SSW 6.6 mph 11.5 mph 59 % 0.00 in
15:31 56.9 °F 43.2 °F 29.60 in SW 6.8 mph 11.5 mph 60 % 0.00 in
15:36 56.7 °F 43.0 °F 29.60 in SW 3.3 mph 6.9 mph 60 % 0.00 in
15:41 56.5 °F 43.6 °F 29.60 in SW 1.1 mph 3.5 mph 62 % 0.00 in
15:46 56.4 °F 43.5 °F 29.60 in WSW 2.5 mph 3.5 mph 62 % 0.00 in
15:47 56.4 °F 43.5 °F 29.60 in SW 3.7 mph 11.0 mph 62 % 0.00 in
15:52 56.3 °F 43.9 °F 29.60 in WSW 3.1 mph 5.8 mph 63 % 0.00 in
15:57 56.3 °F 43.9 °F 29.60 in WSW 4.1 mph 7.0 mph 63 % 0.00 in
16:02 56.4 °F 44.0 °F 29.60 in SW 2.5 mph 5.8 mph 63 % 0.00 in
16:07 56.5 °F 44.0 °F 29.60 in WSW 1.3 mph 3.5 mph 63 % 0.00 in
16:12 56.6 °F 44.1 °F 29.60 in WSW 2.5 mph 5.8 mph 63 % 0.00 in
16:17 56.7 °F 44.2 °F 29.60 in SW 6.6 mph 12.0 mph 63 % 0.00 in
16:22 56.5 °F 46.1 °F 29.62 in SSW 5.1 mph 11.5 mph 68 % 0.00 in
16:27 55.9 °F 45.9 °F 29.62 in WSW 5.6 mph 11.5 mph 69 % 0.01 in
16:32 55.0 °F 45.4 °F 29.62 in WSW 3.4 mph 5.8 mph 70 % 0.01 in
16:37 54.5 °F 45.7 °F 29.62 in WSW 2.3 mph 7.0 mph 72 % 0.01 in
16:42 54.1 °F 45.6 °F 29.61 in Calm   1.2 mph 73 % 0.01 in
16:48 53.8 °F 45.7 °F 29.61 in WSW 0.1 mph 1.2 mph 74 % 0.01 in
16:53 53.5 °F 46.1 °F 29.62 in West 1.3 mph 5.8 mph 76 % 0.01 in
16:58 53.0 °F 45.6 °F 29.63 in WSW 3.5 mph 11.5 mph 76 % 0.01 in
17:03 52.5 °F 44.8 °F 29.62 in WSW 4.3 mph 12.7 mph 75 % 0.01 in
17:08 52.2 °F 44.9 °F 29.62 in WSW 4.5 mph 8.1 mph 76 % 0.01 in
17:13 52.0 °F 45.0 °F 29.62 in West 3.0 mph 6.9 mph 77 % 0.01 in
17:18 51.9 °F 45.3 °F 29.62 in NW 5.6 mph 9.2 mph 78 % 0.01 in
17:23 51.8 °F 45.2 °F 29.62 in WNW 3.3 mph 12.7 mph 78 % 0.01 in
17:27 51.8 °F 45.5 °F 29.62 in WNW 3.4 mph 6.9 mph 79 % 0.01 in
17:32 51.7 °F 45.4 °F 29.62 in WSW 2.9 mph 9.2 mph 79 % 0.00 in
17:37 51.7 °F 45.7 °F 29.63 in West 3.0 mph 9.2 mph 80 % 0.00 in
17:42 51.7 °F 45.7 °F 29.63 in WSW 5.7 mph 9.2 mph 80 % 0.00 in
17:47 51.7 °F 45.4 °F 29.63 in WSW 5.5 mph 10.4 mph 79 % 0.00 in
17:52 51.8 °F 45.5 °F 29.64 in WSW 2.6 mph 5.8 mph 79 % 0.00 in
17:57 51.9 °F 45.6 °F 29.64 in WNW 4.8 mph 9.2 mph 79 % 0.00 in
18:02 51.9 °F 45.6 °F 29.64 in WSW 3.1 mph 6.0 mph 79 % 0.00 in
18:07 51.9 °F 45.3 °F 29.64 in WNW 4.9 mph 10.4 mph 78 % 0.00 in
18:12 51.9 °F 45.3 °F 29.64 in West 5.0 mph 11.5 mph 78 % 0.00 in
18:17 51.9 °F 45.3 °F 29.64 in NW 4.9 mph 11.5 mph 78 % 0.00 in
18:22 51.8 °F 45.2 °F 29.65 in West 5.4 mph 10.4 mph 78 % 0.00 in
18:27 51.7 °F 45.1 °F 29.65 in West 3.5 mph 12.7 mph 78 % 0.00 in
18:32 51.5 °F 44.5 °F 29.65 in NW 6.2 mph 10.0 mph 77 % 0.00 in
18:37 51.3 °F 44.7 °F 29.65 in West 4.6 mph 8.1 mph 78 % 0.00 in
18:42 51.2 °F 44.9 °F 29.65 in WNW 6.6 mph 11.5 mph 79 % 0.00 in
18:47 51.0 °F 45.0 °F 29.65 in NW 4.7 mph 8.1 mph 80 % 0.00 in
18:52 50.8 °F 45.5 °F 29.66 in WSW 3.8 mph 8.0 mph 82 % 0.00 in
18:54 50.7 °F 45.4 °F 29.65 in WNW 2.2 mph 5.8 mph 82 % 0.00 in
18:59 50.5 °F 45.2 °F 29.65 in West 3.0 mph 6.9 mph 82 % 0.00 in
19:04 50.2 °F 45.2 °F 29.66 in WSW 2.3 mph 6.9 mph 83 % 0.00 in
19:09 50.1 °F 45.1 °F 29.66 in North 4.7 mph 11.5 mph 83 % 0.00 in
19:14 49.9 °F 44.9 °F 29.67 in WSW 7.8 mph 11.5 mph 83 % 0.00 in
19:19 49.8 °F 43.9 °F 29.67 in WNW 4.4 mph 7.0 mph 80 % 0.00 in
19:24 49.7 °F 43.5 °F 29.67 in NW 4.2 mph 6.0 mph 79 % 0.00 in
19:29 49.6 °F 43.4 °F 29.67 in WNW 3.9 mph 6.9 mph 79 % 0.00 in
19:34 49.5 °F 43.3 °F 29.67 in WNW 2.3 mph 6.0 mph 79 % 0.00 in
19:39 49.4 °F 42.8 °F 29.68 in NW 3.6 mph 12.7 mph 78 % 0.00 in
19:44 49.3 °F 42.7 °F 29.68 in West 5.1 mph 5.8 mph 78 % 0.00 in
19:49 49.2 °F 42.6 °F 29.68 in NW 6.0 mph 11.5 mph 78 % 0.00 in
19:54 49.2 °F 42.6 °F 29.68 in SW 2.4 mph 9.2 mph 78 % 0.00 in
19:59 49.1 °F 42.9 °F 29.69 in NW 3.3 mph 5.8 mph 79 % 0.00 in
20:04 49.1 °F 42.9 °F 29.69 in NW 2.5 mph 9.2 mph 79 % 0.00 in
20:10 49.0 °F 42.8 °F 29.69 in WNW 2.6 mph 4.6 mph 79 % 0.00 in
20:15 49.0 °F 42.8 °F 29.69 in WSW 5.2 mph 5.8 mph 79 % 0.00 in
20:20 48.9 °F 42.3 °F 29.69 in NNW 4.0 mph 5.8 mph 78 % 0.00 in
20:25 48.9 °F 42.0 °F 29.69 in West 4.2 mph 10.4 mph 77 % 0.00 in
20:30 48.8 °F 41.9 °F 29.70 in WNW 2.8 mph 8.1 mph 77 % 0.00 in
20:35 48.8 °F 41.9 °F 29.70 in West 6.3 mph 11.5 mph 77 % 0.00 in
20:40 48.8 °F 41.9 °F 29.71 in West 2.4 mph 8.1 mph 77 % 0.00 in
20:45 48.8 °F 41.9 °F 29.71 in NW 3.5 mph 10.4 mph 77 % 0.00 in
20:50 48.8 °F 41.9 °F 29.72 in WSW 3.9 mph 10.4 mph 77 % 0.00 in
20:55 48.8 °F 41.6 °F 29.72 in WSW 5.2 mph 11.5 mph 76 % 0.00 in
21:00 48.9 °F 41.7 °F 29.72 in WNW 3.0 mph 4.6 mph 76 % 0.00 in
21:05 48.9 °F 41.7 °F 29.72 in West 2.7 mph 8.0 mph 76 % 0.00 in
21:10 48.9 °F 41.7 °F 29.73 in NW 3.8 mph 9.2 mph 76 % 0.00 in
21:15 48.9 °F 41.3 °F 29.73 in West 5.4 mph 10.0 mph 75 % 0.00 in
21:20 48.9 °F 41.3 °F 29.73 in WSW 6.3 mph 12.7 mph 75 % 0.00 in
21:25 48.9 °F 41.3 °F 29.73 in West 3.8 mph 5.8 mph 75 % 0.00 in
21:30 48.8 °F 41.2 °F 29.73 in West 4.6 mph 11.5 mph 75 % 0.00 in
21:35 48.8 °F 41.6 °F 29.73 in WNW 4.6 mph 10.0 mph 76 % 0.00 in
21:40 48.8 °F 41.6 °F 29.73 in WSW 3.2 mph 11.5 mph 76 % 0.00 in
21:45 48.8 °F 41.6 °F 29.73 in WNW 3.0 mph 8.1 mph 76 % 0.00 in
21:50 48.7 °F 41.1 °F 29.73 in WNW 3.4 mph 9.2 mph 75 % 0.00 in
21:55 48.7 °F 41.5 °F 29.73 in WSW 2.9 mph 6.9 mph 76 % 0.00 in
22:00 48.7 °F 41.1 °F 29.73 in SSW 4.9 mph 4.9 mph 75 % 0.00 in
22:05 48.7 °F 41.1 °F 29.73 in West 2.6 mph 4.6 mph 75 % 0.00 in
22:10 48.7 °F 41.1 °F 29.74 in WNW 5.6 mph 6.9 mph 75 % 0.00 in
22:16 48.6 °F 40.7 °F 29.74 in West 5.0 mph 10.0 mph 74 % 0.00 in
22:21 48.6 °F 40.7 °F 29.74 in WSW 8.5 mph 10.0 mph 74 % 0.00 in
22:26 48.6 °F 40.7 °F 29.74 in WSW 6.0 mph 16.0 mph 74 % 0.00 in
22:31 48.6 °F 40.7 °F 29.74 in West 7.0 mph 15.0 mph 74 % 0.00 in
22:36 48.6 °F 40.7 °F 29.74 in West 3.0 mph 8.0 mph 74 % 0.00 in
22:41 48.5 °F 40.6 °F 29.74 in WSW 6.0 mph 12.0 mph 74 % 0.00 in
22:46 48.5 °F 40.6 °F 29.74 in West 5.0 mph 13.0 mph 74 % 0.00 in
22:51 48.4 °F 40.5 °F 29.73 in West 8.0 mph 10.0 mph 74 % 0.00 in
22:56 48.4 °F 40.8 °F 29.73 in West 3.0 mph 12.0 mph 75 % 0.00 in
23:01 48.3 °F 40.4 °F 29.73 in West 2.9 mph 5.8 mph 74 % 0.00 in
23:06 48.3 °F 40.4 °F 29.73 in WSW 3.3 mph 9.2 mph 74 % 0.00 in
23:11 48.3 °F 40.7 °F 29.73 in NW 5.3 mph 8.1 mph 75 % 0.00 in
23:16 48.2 °F 40.6 °F 29.73 in West 5.2 mph 11.5 mph 75 % 0.00 in
23:21 48.1 °F 40.5 °F 29.73 in West 6.0 mph 11.5 mph 75 % 0.00 in
23:26 48.1 °F 40.5 °F 29.73 in West 5.0 mph 10.4 mph 75 % 0.00 in
23:31 48.0 °F 40.5 °F 29.73 in WSW 3.4 mph 9.2 mph 75 % 0.00 in
23:36 48.0 °F 40.5 °F 29.73 in West 4.7 mph 11.5 mph 75 % 0.00 in
23:41 47.9 °F 40.0 °F 29.73 in WNW 4.6 mph 10.0 mph 74 % 0.00 in
23:46 47.9 °F 39.7 °F 29.73 in WSW 8.1 mph 12.7 mph 73 % 0.00 in
23:51 47.9 °F 39.7 °F 29.73 in NNW 6.4 mph 11.5 mph 73 % 0.00 in
23:56 48.0 °F 40.1 °F 29.73 in WNW 3.9 mph 8.1 mph 74 % 0.00 in
Crab Meadow Weather
Compliments of Weather Underground - 3 mb

Script developed by  Jim McMurry - jmcmurry@mwt.net Adapted for the template by  Wim van der Kuil - Leuven-Template.eu

Clouds: Mostly Cloudy or Considerable Cloudiness indicate about 75 percent cloud coverage.